Time;durP1;ratioP1;P1;durP2;ratioP2;P2;SDS_P1;SDS_P2;PMS_P1;PMS_P2;Temp;Humidity;BMP_temperature;BMP_pressure;BME280_temperature;BME280_humidity;BME280_pressure;Samples;Min_cycle;Max_cycle;Signal;HPM_P1;HPM_P2
2022/03/09 00:00:21;;;;;;;11.30;6.07;;;-1.90;90.70;;;;;;5053599;28;20194;-70
2022/03/09 00:02:47;;;;;;;7.23;4.87;;;-1.90;90.80;;;;;;5059237;28;20190;-70
2022/03/09 00:05:13;;;;;;;8.47;4.73;;;-1.90;90.90;;;;;;5056240;28;20575;-70
2022/03/09 00:07:38;;;;;;;5.83;4.30;;;-1.90;91.00;;;;;;5044691;28;20339;-70
2022/03/09 00:10:05;;;;;;;6.93;5.97;;;-1.90;90.90;;;;;;5052930;28;20183;-70
2022/03/09 00:12:31;;;;;;;9.07;5.77;;;-2.00;91.10;;;;;;5054355;28;20444;-70
2022/03/09 00:14:56;;;;;;;11.50;5.53;;;-2.00;91.10;;;;;;5057672;28;20183;-70
2022/03/09 00:17:22;;;;;;;9.57;5.30;;;-2.10;91.20;;;;;;5051094;28;20547;-69
2022/03/09 00:19:48;;;;;;;9.57;5.67;;;-2.10;91.30;;;;;;5054448;28;20195;-70
2022/03/09 00:22:14;;;;;;;9.97;5.93;;;-2.10;91.40;;;;;;5053532;28;20216;-70
2022/03/09 00:24:40;;;;;;;10.10;5.10;;;-2.10;91.70;;;;;;5046289;28;20259;-70
2022/03/09 00:27:06;;;;;;;10.30;4.97;;;-2.20;91.90;;;;;;5056482;28;20178;-71
2022/03/09 00:29:32;;;;;;;8.93;5.30;;;-2.10;91.70;;;;;;5044104;28;20231;-71
2022/03/09 00:31:58;;;;;;;5.83;5.13;;;-2.10;91.50;;;;;;5047812;28;20592;-70
2022/03/09 00:34:23;;;;;;;6.57;4.80;;;-2.10;91.40;;;;;;5053637;28;20178;-70
2022/03/09 00:36:49;;;;;;;5.20;4.43;;;-2.10;91.10;;;;;;5058463;28;20181;-71
2022/03/09 00:39:15;;;;;;;6.43;4.57;;;-2.10;91.00;;;;;;5052808;28;20261;-70
2022/03/09 00:41:41;;;;;;;7.13;4.43;;;-2.10;91.20;;;;;;5050476;28;20323;-71
2022/03/09 00:44:07;;;;;;;7.10;4.80;;;-2.20;91.40;;;;;;5046653;28;20187;-70
2022/03/09 00:46:33;;;;;;;5.77;4.37;;;-2.20;91.50;;;;;;5053212;28;20176;-70
2022/03/09 00:48:59;;;;;;;9.30;5.07;;;-2.20;91.40;;;;;;5058108;28;20738;-70
2022/03/09 00:51:25;;;;;;;7.57;5.23;;;-2.10;91.30;;;;;;5046268;28;20187;-70
2022/03/09 00:53:50;;;;;;;6.00;4.50;;;-2.10;91.10;;;;;;5051042;28;20269;-70
2022/03/09 00:56:16;;;;;;;10.67;6.00;;;-2.10;91.10;;;;;;5053784;28;22560;-70
2022/03/09 00:58:42;;;;;;;9.83;5.67;;;-2.10;90.90;;;;;;5053562;28;20186;-69
2022/03/09 01:01:10;;;;;;;7.23;5.07;;;-2.10;90.80;;;;;;5045188;28;20643;-70
2022/03/09 01:03:36;;;;;;;9.17;5.73;;;-2.10;90.70;;;;;;5051278;28;20178;-71
2022/03/09 01:06:02;;;;;;;8.90;5.13;;;-2.00;90.60;;;;;;5052250;28;20203;-70
2022/03/09 01:08:28;;;;;;;6.93;3.97;;;-2.10;89.90;;;;;;5050329;28;20203;-70
2022/03/09 01:10:54;;;;;;;9.37;4.83;;;-2.00;89.50;;;;;;5054125;28;20187;-70
2022/03/09 01:13:21;;;;;;;10.77;5.23;;;-2.00;89.30;;;;;;5050215;28;20182;-70
2022/03/09 01:15:47;;;;;;;10.03;5.77;;;-2.00;88.90;;;;;;5050058;28;20268;-70
2022/03/09 01:18:13;;;;;;;8.93;5.03;;;-2.00;88.50;;;;;;5047802;28;20255;-71
2022/03/09 01:20:39;;;;;;;7.83;4.63;;;-2.10;88.30;;;;;;5053371;28;20695;-70
2022/03/09 01:23:05;;;;;;;4.77;3.50;;;-2.10;88.30;;;;;;5053673;28;20183;-71
2022/03/09 01:25:31;;;;;;;7.10;3.97;;;-2.10;88.10;;;;;;5046761;28;20249;-71
2022/03/09 01:27:58;;;;;;;5.50;4.23;;;-2.10;88.00;;;;;;5048791;28;20683;-71
2022/03/09 01:30:24;;;;;;;7.07;5.27;;;-2.10;87.60;;;;;;5049464;28;20256;-69
2022/03/09 01:32:51;;;;;;;7.33;4.77;;;-2.10;87.50;;;;;;5049109;28;20184;-70
2022/03/09 01:35:18;;;;;;;8.90;4.33;;;-2.10;87.40;;;;;;5052357;28;20256;-69
2022/03/09 01:37:45;;;;;;;6.00;3.53;;;-2.10;87.40;;;;;;5050185;28;20197;-69
2022/03/09 01:40:12;;;;;;;6.80;4.20;;;-2.10;87.40;;;;;;5043189;28;20186;-70
2022/03/09 01:42:37;;;;;;;8.90;4.77;;;-2.10;87.20;;;;;;5045768;28;20185;-70
2022/03/09 01:45:07;;;;;;;9.20;5.97;;;-2.20;87.00;;;;;;5050950;28;20731;-70
2022/03/09 01:47:33;;;;;;;8.13;5.33;;;-2.20;87.10;;;;;;5046441;28;20642;-70
2022/03/09 01:49:59;;;;;;;6.17;4.20;;;-2.20;86.90;;;;;;5054474;28;20269;-71
2022/03/09 01:52:25;;;;;;;7.03;4.20;;;-2.20;86.80;;;;;;5050364;28;20316;-69
2022/03/09 01:54:52;;;;;;;5.37;4.27;;;-2.30;86.70;;;;;;5048827;28;20262;-70
2022/03/09 01:57:21;;;;;;;8.63;5.17;;;-2.30;87.00;;;;;;5053469;28;20284;-70
2022/03/09 01:59:51;;;;;;;10.60;5.20;;;-2.20;87.10;;;;;;5057137;28;20188;-70
2022/03/09 02:02:17;;;;;;;7.40;4.87;;;-2.20;87.20;;;;;;5044683;28;20699;-70
2022/03/09 02:04:44;;;;;;;10.53;4.90;;;-2.20;87.00;;;;;;5051653;28;20191;-71
2022/03/09 02:07:10;;;;;;;4.83;4.37;;;-2.10;87.00;;;;;;5048811;28;20186;-70
2022/03/09 02:09:47;;;;;;;6.97;4.20;;;-2.10;86.80;;;;;;5051316;28;20215;-70
2022/03/09 02:12:16;;;;;;;6.17;3.97;;;-2.20;86.70;;;;;;5046008;28;20231;-70
2022/03/09 02:14:45;;;;;;;9.20;5.17;;;-2.20;86.80;;;;;;5055729;28;20190;-70
2022/03/09 02:17:16;;;;;;;6.17;4.40;;;-2.20;86.70;;;;;;5053572;28;20971;-70
2022/03/09 02:19:45;;;;;;;4.33;3.67;;;-2.20;86.70;;;;;;5042311;28;20192;-70
2022/03/09 02:22:21;;;;;;;9.83;5.40;;;-2.20;86.70;;;;;;5053630;28;20195;-70
2022/03/09 02:24:48;;;;;;;9.30;5.40;;;-2.20;86.60;;;;;;5051858;28;20560;-70
2022/03/09 02:27:14;;;;;;;5.83;4.53;;;-2.30;86.70;;;;;;5049505;28;20187;-70
2022/03/09 02:29:40;;;;;;;6.93;5.03;;;-2.30;86.80;;;;;;5054825;28;20268;-70
2022/03/09 02:32:06;;;;;;;7.57;4.47;;;-2.30;86.80;;;;;;5047717;28;20210;-70
2022/03/09 02:34:32;;;;;;;6.53;4.13;;;-2.30;86.80;;;;;;5052151;28;20191;-69
2022/03/09 02:36:58;;;;;;;8.27;4.87;;;-2.30;86.90;;;;;;5049826;28;20637;-70
2022/03/09 02:39:24;;;;;;;10.30;5.53;;;-2.20;86.80;;;;;;5054612;28;20189;-70
2022/03/09 02:41:50;;;;;;;9.20;5.10;;;-2.20;86.70;;;;;;5050337;28;20186;-70
2022/03/09 02:44:15;;;;;;;7.40;5.47;;;-2.20;86.60;;;;;;5044224;28;20190;-70
2022/03/09 02:46:41;;;;;;;8.87;4.97;;;-2.20;86.70;;;;;;5043030;28;20273;-70
2022/03/09 02:49:07;;;;;;;6.10;4.40;;;-2.20;86.60;;;;;;5045919;28;20215;-69
2022/03/09 02:51:33;;;;;;;7.53;5.03;;;-2.20;86.50;;;;;;5050144;28;20178;-70
2022/03/09 02:53:59;;;;;;;7.60;4.63;;;-2.20;86.60;;;;;;5050914;28;20657;-71
2022/03/09 02:56:24;;;;;;;7.53;4.77;;;-2.20;86.70;;;;;;5045315;28;20183;-70
2022/03/09 02:58:50;;;;;;;6.63;5.13;;;-2.20;86.60;;;;;;5049818;28;20184;-70
2022/03/09 03:01:16;;;;;;;5.43;4.40;;;-2.20;86.80;;;;;;5052660;28;20178;-70
2022/03/09 03:03:43;;;;;;;10.57;6.30;;;-2.20;86.70;;;;;;5048404;28;20220;-70
2022/03/09 03:06:09;;;;;;;6.10;5.27;;;-2.20;86.70;;;;;;5048904;28;20306;-71
2022/03/09 03:08:37;;;;;;;4.57;4.17;;;-2.20;86.60;;;;;;5047056;28;20218;-71
2022/03/09 03:11:04;;;;;;;9.77;5.43;;;-2.20;86.60;;;;;;5051773;28;20190;-69
2022/03/09 03:13:30;;;;;;;8.73;5.13;;;-2.30;86.70;;;;;;5049802;28;20190;-70
2022/03/09 03:15:55;;;;;;;6.73;4.77;;;-2.30;86.70;;;;;;5040249;28;20661;-70
2022/03/09 03:18:21;;;;;;;7.60;5.03;;;-2.30;86.90;;;;;;5043365;28;20191;-70
2022/03/09 03:20:48;;;;;;;12.17;5.07;;;-2.20;87.00;;;;;;5053710;28;20591;-70
2022/03/09 03:23:13;;;;;;;5.77;3.87;;;-2.20;87.00;;;;;;5049706;28;20191;-71
2022/03/09 03:25:39;;;;;;;4.23;3.93;;;-2.20;87.10;;;;;;5044759;28;20187;-70
2022/03/09 03:28:05;;;;;;;8.53;4.20;;;-2.10;86.90;;;;;;5049359;28;20286;-70
2022/03/09 03:30:30;;;;;;;9.20;4.67;;;-2.10;86.90;;;;;;5056217;28;20175;-70
2022/03/09 03:32:56;;;;;;;7.73;4.47;;;-2.20;86.40;;;;;;5046042;28;20275;-70
2022/03/09 03:35:22;;;;;;;8.97;5.53;;;-2.20;86.40;;;;;;5050859;28;20263;-70
2022/03/09 03:37:47;;;;;;;9.83;5.87;;;-2.30;86.40;;;;;;5044040;28;20187;-70
2022/03/09 03:40:14;;;;;;;8.73;5.03;;;-2.40;86.50;;;;;;5056985;28;20664;-71
2022/03/09 03:42:39;;;;;;;5.33;4.53;;;-2.40;86.60;;;;;;5051869;28;20194;-70
2022/03/09 03:45:05;;;;;;;9.60;4.40;;;-2.40;86.80;;;;;;5056236;28;20576;-70
2022/03/09 03:47:31;;;;;;;6.50;4.97;;;-2.50;86.90;;;;;;5058025;28;20178;-71
2022/03/09 03:49:57;;;;;;;5.53;4.67;;;-2.40;86.90;;;;;;5057040;28;20187;-70
2022/03/09 03:52:22;;;;;;;7.13;4.57;;;-2.50;86.90;;;;;;5050607;28;20185;-71
2022/03/09 03:54:48;;;;;;;4.83;4.37;;;-2.50;86.70;;;;;;5056005;28;20653;-71
2022/03/09 03:57:14;;;;;;;7.10;5.70;;;-2.50;86.80;;;;;;5058524;28;20177;-70
2022/03/09 03:59:39;;;;;;;5.93;4.20;;;-2.50;86.80;;;;;;5054020;28;20288;-70
2022/03/09 04:02:05;;;;;;;8.33;5.47;;;-2.60;86.80;;;;;;5057615;28;20177;-71
2022/03/09 04:04:31;;;;;;;7.87;5.03;;;-2.60;86.80;;;;;;5054996;28;20707;-70
2022/03/09 04:06:56;;;;;;;5.13;4.20;;;-2.70;86.90;;;;;;5052362;28;20367;-70
2022/03/09 04:09:22;;;;;;;7.53;4.90;;;-2.70;87.10;;;;;;5044934;28;20687;-70
2022/03/09 04:11:48;;;;;;;6.90;5.03;;;-2.70;87.10;;;;;;5053950;28;20551;-70
2022/03/09 04:14:13;;;;;;;6.40;5.27;;;-2.70;87.30;;;;;;5056080;28;20183;-70
2022/03/09 04:16:39;;;;;;;8.50;6.23;;;-2.70;87.30;;;;;;5053649;28;20178;-70
2022/03/09 04:19:05;;;;;;;7.00;4.73;;;-2.70;87.20;;;;;;5052740;28;20186;-70
2022/03/09 04:21:30;;;;;;;8.97;5.57;;;-2.70;87.20;;;;;;5048548;28;20225;-70
2022/03/09 04:23:56;;;;;;;6.70;4.17;;;-2.70;87.30;;;;;;5048440;28;20855;-70
2022/03/09 04:26:23;;;;;;;6.77;3.73;;;-2.70;87.30;;;;;;5048391;28;20273;-71
2022/03/09 04:28:48;;;;;;;7.23;5.00;;;-2.70;87.30;;;;;;5048542;28;20203;-70
2022/03/09 04:31:14;;;;;;;15.60;5.83;;;-2.70;87.30;;;;;;5055435;28;20680;-71
2022/03/09 04:33:40;;;;;;;5.97;4.60;;;-2.70;87.20;;;;;;5054294;28;20189;-70
2022/03/09 04:36:06;;;;;;;10.13;5.30;;;-2.70;87.30;;;;;;5053240;28;20194;-70
2022/03/09 04:38:32;;;;;;;7.63;4.50;;;-2.70;87.40;;;;;;5055849;28;20692;-70
2022/03/09 04:40:57;;;;;;;8.03;4.87;;;-2.60;87.30;;;;;;5049867;28;20190;-70
2022/03/09 04:43:23;;;;;;;6.87;4.63;;;-2.60;87.30;;;;;;5050933;28;20828;-71
2022/03/09 04:45:49;;;;;;;10.20;5.17;;;-2.60;87.20;;;;;;5045172;28;20290;-70
2022/03/09 04:48:14;;;;;;;6.83;3.83;;;-2.60;86.80;;;;;;5052287;28;20221;-70
2022/03/09 04:50:40;;;;;;;8.73;5.13;;;-2.60;86.80;;;;;;5052182;28;20187;-70
2022/03/09 04:53:06;;;;;;;8.20;4.33;;;-2.60;86.70;;;;;;5055419;28;20193;-70
2022/03/09 04:55:31;;;;;;;7.57;5.80;;;-2.70;86.70;;;;;;5046616;28;20208;-70
2022/03/09 04:57:57;;;;;;;8.87;5.47;;;-2.70;86.70;;;;;;5051435;28;20190;-70
2022/03/09 05:00:23;;;;;;;6.03;4.23;;;-2.70;86.70;;;;;;5044839;28;20189;-69
2022/03/09 05:02:48;;;;;;;6.50;3.93;;;-2.70;86.90;;;;;;5057287;28;20181;-70
2022/03/09 05:05:15;;;;;;;6.53;4.53;;;-2.60;86.90;;;;;;5049627;28;20199;-70
2022/03/09 05:07:41;;;;;;;4.97;4.67;;;-2.60;87.10;;;;;;5051663;28;20297;-69
2022/03/09 05:10:08;;;;;;;12.63;5.77;;;-2.60;87.00;;;;;;5052420;28;20179;-69
2022/03/09 05:12:33;;;;;;;10.13;5.37;;;-2.60;86.80;;;;;;5051700;28;20185;-69
2022/03/09 05:14:59;;;;;;;7.53;4.97;;;-2.60;86.90;;;;;;5049795;28;20210;-69
2022/03/09 05:17:25;;;;;;;11.20;5.13;;;-2.60;87.10;;;;;;5046758;28;20262;-70
2022/03/09 05:19:50;;;;;;;11.17;5.10;;;-2.60;87.20;;;;;;5057358;28;20182;-70
2022/03/09 05:22:16;;;;;;;8.23;4.57;;;-2.60;87.20;;;;;;5059919;28;20182;-70
2022/03/09 05:24:42;;;;;;;5.83;4.37;;;-2.60;87.20;;;;;;5052716;28;20187;-70
2022/03/09 05:27:08;;;;;;;8.80;5.87;;;-2.60;87.10;;;;;;5056623;28;20183;-70
2022/03/09 05:29:34;;;;;;;6.00;3.83;;;-2.60;87.10;;;;;;5053642;28;20219;-70
2022/03/09 05:31:59;;;;;;;8.27;5.83;;;-2.50;87.20;;;;;;5051136;28;20915;-71
2022/03/09 05:34:25;;;;;;;5.07;4.57;;;-2.50;87.10;;;;;;5047495;28;20200;-69
2022/03/09 05:36:51;;;;;;;6.13;4.67;;;-2.50;87.00;;;;;;5052912;28;21046;-69
2022/03/09 05:39:17;;;;;;;11.63;5.63;;;-2.50;87.00;;;;;;5049023;28;20207;-70
2022/03/09 05:41:42;;;;;;;6.83;4.87;;;-2.40;87.00;;;;;;5050878;28;20573;-71
2022/03/09 05:44:08;;;;;;;7.83;5.60;;;-2.40;87.00;;;;;;5050156;28;20180;-69
2022/03/09 05:46:34;;;;;;;7.20;4.00;;;-2.40;86.80;;;;;;5047865;28;20222;-70
2022/03/09 05:49:01;;;;;;;11.17;5.50;;;-2.40;86.70;;;;;;5055874;28;20292;-70
2022/03/09 05:51:27;;;;;;;7.87;5.10;;;-2.40;86.60;;;;;;5045444;28;20186;-72
2022/03/09 05:53:53;;;;;;;5.07;4.37;;;-2.40;86.50;;;;;;5051066;28;20269;-71
2022/03/09 05:56:18;;;;;;;5.17;4.37;;;-2.40;86.60;;;;;;5049534;28;20179;-73
2022/03/09 05:58:44;;;;;;;7.00;5.60;;;-2.50;86.60;;;;;;5048787;28;20246;-73
2022/03/09 06:01:10;;;;;;;7.77;4.57;;;-2.50;86.80;;;;;;5050680;28;20180;-73
2022/03/09 06:03:36;;;;;;;7.73;5.63;;;-2.60;87.00;;;;;;5050582;28;20203;-73
2022/03/09 06:06:01;;;;;;;10.13;6.13;;;-2.60;87.10;;;;;;5052568;28;20217;-74
2022/03/09 06:08:27;;;;;;;8.57;5.07;;;-2.60;87.30;;;;;;5053330;28;20602;-74
2022/03/09 06:10:53;;;;;;;10.50;5.80;;;-2.60;87.60;;;;;;5048759;28;20187;-73
2022/03/09 06:13:19;;;;;;;8.37;5.57;;;-2.60;87.50;;;;;;5050489;28;20973;-73
2022/03/09 06:15:45;;;;;;;14.50;6.37;;;-2.50;87.40;;;;;;5049267;28;20202;-73
2022/03/09 06:18:11;;;;;;;10.40;4.97;;;-2.50;87.40;;;;;;5052736;28;20265;-73
2022/03/09 06:20:36;;;;;;;7.10;5.13;;;-2.50;87.50;;;;;;5047756;28;20194;-72
2022/03/09 06:23:02;;;;;;;5.83;4.00;;;-2.40;87.50;;;;;;5047990;28;20198;-73
2022/03/09 06:25:28;;;;;;;9.50;5.90;;;-2.40;87.40;;;;;;5047584;28;20736;-72
2022/03/09 06:27:54;;;;;;;9.43;4.87;;;-2.30;87.10;;;;;;5046480;28;20222;-71
2022/03/09 06:30:20;;;;;;;8.63;4.90;;;-2.30;87.00;;;;;;5050734;28;20174;-73
2022/03/09 06:32:47;;;;;;;9.07;6.53;;;-2.20;86.80;;;;;;5045237;28;21089;-72
2022/03/09 06:35:14;;;;;;;6.93;4.60;;;-2.20;86.70;;;;;;5050618;28;20571;-73
2022/03/09 06:37:39;;;;;;;8.73;5.03;;;-2.20;86.70;;;;;;5051957;28;20188;-70
2022/03/09 06:40:06;;;;;;;10.70;6.17;;;-2.10;86.60;;;;;;5045508;28;20183;-73
2022/03/09 06:42:32;;;;;;;8.23;4.83;;;-2.10;86.60;;;;;;5047275;28;20180;-72
2022/03/09 06:44:58;;;;;;;8.60;5.07;;;-2.10;86.40;;;;;;5049249;28;20199;-72
2022/03/09 06:47:24;;;;;;;10.53;4.33;;;-2.10;86.30;;;;;;5049795;28;20483;-73
2022/03/09 06:49:51;;;;;;;10.40;5.87;;;-2.00;86.30;;;;;;5051441;28;20218;-72
2022/03/09 06:52:16;;;;;;;6.17;5.10;;;-2.00;86.20;;;;;;5051774;28;20217;-73
2022/03/09 06:54:42;;;;;;;8.50;5.80;;;-1.90;85.90;;;;;;5047344;28;20207;-72
2022/03/09 06:57:08;;;;;;;7.53;4.83;;;-1.90;86.00;;;;;;5048059;28;20188;-72
2022/03/09 06:59:34;;;;;;;8.30;5.00;;;-1.80;85.90;;;;;;5050589;28;20183;-72
2022/03/09 07:02:00;;;;;;;14.50;6.37;;;-1.70;85.70;;;;;;5047935;28;20669;-73
2022/03/09 07:04:25;;;;;;;6.93;5.17;;;-1.60;85.30;;;;;;5056222;28;20206;-73
2022/03/09 07:06:52;;;;;;;8.80;4.90;;;-1.50;85.00;;;;;;5054623;28;20227;-73
2022/03/09 07:09:18;;;;;;;12.00;6.73;;;-1.40;84.90;;;;;;5053533;28;20659;-72
2022/03/09 07:11:44;;;;;;;7.77;5.63;;;-1.20;84.60;;;;;;5055962;28;20171;-71
2022/03/09 07:14:11;;;;;;;10.63;7.13;;;-1.00;84.50;;;;;;5050601;28;20184;-72
2022/03/09 07:16:37;;;;;;;10.13;6.50;;;-0.80;83.90;;;;;;5054593;28;20187;-73
2022/03/09 07:19:03;;;;;;;9.63;5.97;;;-0.70;83.30;;;;;;5058140;28;20210;-73
2022/03/09 07:21:29;;;;;;;8.73;4.93;;;-0.50;83.10;;;;;;5060608;28;20888;-71
2022/03/09 07:23:55;;;;;;;7.50;5.10;;;-0.30;82.70;;;;;;5055071;28;20211;-71
2022/03/09 07:26:20;;;;;;;11.93;5.50;;;-0.20;81.80;;;;;;5051448;28;20262;-71
2022/03/09 07:28:46;;;;;;;15.57;5.57;;;-0.10;81.80;;;;;;5053826;28;20298;-71
2022/03/09 07:31:12;;;;;;;7.33;5.40;;;0.00;81.30;;;;;;5059485;28;20260;-70
2022/03/09 07:33:38;;;;;;;10.77;5.97;;;-0.10;80.10;;;;;;5063228;28;20175;-73
2022/03/09 07:36:04;;;;;;;8.47;6.07;;;0.00;80.90;;;;;;5053973;28;20183;-71
2022/03/09 07:38:30;;;;;;;8.27;4.40;;;0.00;80.50;;;;;;5061126;28;20211;-71
2022/03/09 07:40:56;;;;;;;10.23;6.50;;;0.20;80.80;;;;;;5050055;28;20242;-71
2022/03/09 07:43:22;;;;;;;10.53;6.47;;;0.30;80.20;;;;;;5045702;28;20183;-72
2022/03/09 07:45:48;;;;;;;11.10;6.93;;;0.30;79.90;;;;;;5050929;28;20187;-72
2022/03/09 07:48:14;;;;;;;7.83;6.63;;;0.40;79.50;;;;;;5052153;28;20694;-71
2022/03/09 07:50:40;;;;;;;12.63;6.77;;;0.50;79.50;;;;;;5050090;28;20897;-71
2022/03/09 07:53:07;;;;;;;13.57;7.27;;;0.70;79.90;;;;;;5049155;28;20176;-71
2022/03/09 07:55:33;;;;;;;10.20;6.30;;;0.90;78.90;;;;;;5049512;28;20186;-70
2022/03/09 07:57:59;;;;;;;10.97;5.70;;;1.10;79.40;;;;;;5046130;28;20198;-70
2022/03/09 08:00:25;;;;;;;9.93;6.30;;;1.40;80.10;;;;;;5052738;28;20187;-70
2022/03/09 08:02:50;;;;;;;10.03;6.33;;;1.70;79.20;;;;;;5050895;28;20237;-71
2022/03/09 08:05:16;;;;;;;6.97;5.60;;;2.00;79.40;;;;;;5049512;28;20202;-72
2022/03/09 08:07:45;;;;;;;10.53;7.10;;;2.40;79.20;;;;;;5057889;28;20183;-71
2022/03/09 08:10:11;;;;;;;12.47;7.27;;;2.60;75.80;;;;;;5051853;28;20175;-71
2022/03/09 08:12:37;;;;;;;9.87;6.70;;;2.60;75.00;;;;;;5048167;28;20190;-71
2022/03/09 08:15:04;;;;;;;10.97;6.67;;;2.90;76.10;;;;;;5050694;28;20258;-70
2022/03/09 08:17:30;;;;;;;12.70;6.60;;;3.10;77.00;;;;;;5047530;28;20236;-70
2022/03/09 08:19:56;;;;;;;10.23;6.37;;;3.40;75.80;;;;;;5047192;28;20190;-72
2022/03/09 08:22:22;;;;;;;9.03;6.40;;;3.70;76.40;;;;;;5048252;28;20183;-72
2022/03/09 08:24:48;;;;;;;9.83;6.60;;;4.10;75.40;;;;;;5048685;28;20182;-72
2022/03/09 08:27:14;;;;;;;13.67;7.30;;;4.40;75.90;;;;;;5050777;28;20187;-71
2022/03/09 08:29:40;;;;;;;10.93;7.57;;;4.50;71.40;;;;;;5046796;28;20226;-71
2022/03/09 08:32:06;;;;;;;14.40;7.97;;;4.60;71.90;;;;;;5053745;28;20183;-71
2022/03/09 08:34:32;;;;;;;12.13;7.47;;;4.90;72.60;;;;;;5047951;28;20183;-71
2022/03/09 08:36:57;;;;;;;7.60;6.00;;;5.30;74.50;;;;;;5046091;28;20775;-71
2022/03/09 08:39:23;;;;;;;9.93;7.40;;;5.80;73.70;;;;;;5049907;28;20238;-71
2022/03/09 08:41:49;;;;;;;11.80;8.13;;;6.30;73.80;;;;;;5041661;28;20533;-71
2022/03/09 08:44:16;;;;;;;14.80;8.23;;;6.70;71.20;;;;;;5047267;28;20294;-71
2022/03/09 08:46:42;;;;;;;14.60;8.57;;;7.10;70.60;;;;;;5050749;28;20244;-71
2022/03/09 08:49:08;;;;;;;17.07;9.20;;;7.40;70.20;;;;;;5052096;28;20237;-71
2022/03/09 08:51:33;;;;;;;13.00;8.90;;;7.70;69.50;;;;;;5053693;28;20303;-72
2022/03/09 08:53:59;;;;;;;18.80;9.23;;;7.80;66.20;;;;;;5051025;28;20234;-72
2022/03/09 08:56:28;;;;;;;13.07;8.47;;;7.60;65.00;;;;;;5053220;28;20728;-71
2022/03/09 08:58:55;;;;;;;13.73;9.53;;;7.30;65.30;;;;;;5048026;28;20179;-72
2022/03/09 09:01:21;;;;;;;14.17;9.17;;;7.10;64.60;;;;;;5049814;28;20187;-71
2022/03/09 09:03:47;;;;;;;12.53;8.97;;;6.80;66.30;;;;;;5047001;28;20191;-71
2022/03/09 09:06:14;;;;;;;18.47;9.53;;;6.90;66.90;;;;;;5045598;28;20278;-72
2022/03/09 09:08:40;;;;;;;13.50;9.00;;;7.10;67.60;;;;;;5045613;28;20260;-71
2022/03/09 09:11:06;;;;;;;16.43;10.37;;;7.40;67.60;;;;;;5043328;28;20183;-70
2022/03/09 09:13:31;;;;;;;14.57;9.13;;;7.80;66.90;;;;;;5047053;28;20180;-70
2022/03/09 09:15:57;;;;;;;18.67;9.63;;;8.10;67.00;;;;;;5051430;28;20541;-70
2022/03/09 09:18:23;;;;;;;16.27;10.57;;;8.70;67.80;;;;;;5047093;28;20188;-70
2022/03/09 09:20:49;;;;;;;16.13;10.33;;;9.20;68.10;;;;;;5049588;28;20210;-70
2022/03/09 09:23:16;;;;;;;13.40;9.73;;;9.80;66.00;;;;;;5055434;28;20236;-72
2022/03/09 09:25:42;;;;;;;18.37;10.97;;;10.20;65.80;;;;;;5047708;28;20204;-71
2022/03/09 09:28:08;;;;;;;14.20;9.33;;;10.60;60.10;;;;;;5044843;28;20302;-70
2022/03/09 09:30:34;;;;;;;15.87;10.67;;;10.50;60.30;;;;;;5047971;28;20613;-71
2022/03/09 09:33:00;;;;;;;16.08;10.80;;;10.60;60.50;;;;;;5054416;28;20183;-70
2022/03/09 09:35:26;;;;;;;17.43;10.67;;;10.70;60.60;;;;;;5044238;28;20187;-70
2022/03/09 09:37:52;;;;;;;14.18;9.82;;;11.00;61.60;;;;;;5049319;28;20187;-70
2022/03/09 09:40:18;;;;;;;15.55;10.18;;;11.50;61.80;;;;;;5048146;28;20235;-70
2022/03/09 09:42:44;;;;;;;12.80;9.70;;;12.00;62.70;;;;;;5052074;28;20176;-70
2022/03/09 09:45:10;;;;;;;13.48;9.95;;;12.90;63.50;;;;;;5050092;28;20191;-71
2022/03/09 09:47:37;;;;;;;18.75;10.07;;;13.80;61.60;;;;;;5049039;28;20179;-70
2022/03/09 09:50:05;;;;;;;16.55;10.32;;;14.50;60.20;;;;;;5049626;28;20270;-71
2022/03/09 09:52:33;;;;;;;15.65;10.32;;;15.40;57.10;;;;;;5049004;28;20187;-71
2022/03/09 09:55:00;;;;;;;18.15;11.32;;;16.20;57.50;;;;;;5042503;28;20191;-71
2022/03/09 09:57:28;;;;;;;14.57;10.23;;;16.70;54.20;;;;;;5044335;28;20185;-71
2022/03/09 09:59:54;;;;;;;16.00;11.80;;;17.00;52.40;;;;;;5044315;28;20873;-71
2022/03/09 10:02:20;;;;;;;14.10;10.65;;;17.20;50.10;;;;;;5041940;28;20177;-71
2022/03/09 10:04:47;;;;;;;13.30;10.32;;;16.40;47.60;;;;;;5044929;28;20678;-70
2022/03/09 10:07:13;;;;;;;13.57;9.70;;;15.40;49.00;;;;;;5044448;28;20873;-71
2022/03/09 10:09:41;;;;;;;12.70;9.35;;;14.40;50.00;;;;;;5043218;28;20736;-70
2022/03/09 10:12:08;;;;;;;10.70;8.55;;;13.70;51.70;;;;;;5053245;28;20816;-70
2022/03/09 10:14:50;;;;;;;10.98;8.65;;;13.50;52.40;;;;;;5049829;28;20266;-70
2022/03/09 10:17:19;;;;;;;12.52;8.93;;;13.50;54.00;;;;;;5045986;28;20233;-70
2022/03/09 10:19:48;;;;;;;11.23;8.25;;;13.60;53.20;;;;;;5044205;28;20661;-72
2022/03/09 10:22:37;;;;;;;10.68;8.05;;;13.80;54.60;;;;;;5042190;28;20523;-70
2022/03/09 10:25:08;;;;;;;8.75;7.50;;;14.00;52.10;;;;;;5044983;28;20183;-71
2022/03/09 10:27:42;;;;;;;11.63;8.63;;;14.00;50.10;;;;;;5048577;28;20259;-71
2022/03/09 10:30:15;;;;;;;11.10;7.95;;;14.10;53.40;;;;;;5047321;28;20594;-71
2022/03/09 10:32:48;;;;;;;9.77;8.20;;;14.50;51.30;;;;;;5043169;28;20608;-71
2022/03/09 10:35:16;;;;;;;11.68;8.30;;;15.00;51.00;;;;;;5047522;28;20197;-70
2022/03/09 10:37:44;;;;;;;11.00;8.32;;;15.60;50.80;;;;;;5050291;28;20201;-70
2022/03/09 10:40:21;;;;;;;13.27;9.13;;;15.80;49.70;;;;;;5049525;28;20205;-70
2022/03/09 10:42:48;;;;;;;11.02;9.02;;;16.20;50.10;;;;;;5048254;28;20187;-70
2022/03/09 10:45:17;;;;;;;11.55;7.82;;;16.20;50.00;;;;;;5048252;28;20210;-70
2022/03/09 10:47:47;;;;;;;8.15;7.18;;;16.50;49.70;;;;;;5050057;28;20266;-71
2022/03/09 10:50:21;;;;;;;8.23;7.32;;;16.60;48.20;;;;;;5051785;28;20626;-70
2022/03/09 10:52:51;;;;;;;7.75;6.95;;;16.30;46.10;;;;;;5051673;28;20175;-70
2022/03/09 10:55:35;;;;;;;8.65;6.55;;;15.40;46.00;;;;;;5049218;28;20194;-72
2022/03/09 10:58:22;;;;;;;9.45;7.22;;;14.70;47.40;;;;;;5052359;28;20264;-70
2022/03/09 11:00:50;;;;;;;7.85;6.80;;;14.70;49.60;;;;;;5044751;28;20203;-70
2022/03/09 11:03:27;;;;;;;9.55;7.20;;;14.80;48.60;;;;;;5054424;28;20229;-72
2022/03/09 11:05:58;;;;;;;8.93;7.13;;;15.00;47.50;;;;;;5051567;28;20633;-71
2022/03/09 11:08:26;;;;;;;9.95;7.78;;;15.50;49.90;;;;;;5053099;28;20583;-72
2022/03/09 11:10:54;;;;;;;6.35;5.65;;;15.60;47.20;;;;;;5052359;28;20203;-72
2022/03/09 11:13:22;;;;;;;7.03;6.15;;;15.00;46.30;;;;;;5052864;28;20574;-71
2022/03/09 11:15:48;;;;;;;6.75;6.10;;;14.60;47.10;;;;;;5053215;28;20175;-71
2022/03/09 11:18:18;;;;;;;6.68;6.05;;;14.40;47.20;;;;;;5051152;28;20183;-71
2022/03/09 11:20:45;;;;;;;7.25;6.50;;;14.20;46.80;;;;;;5051113;28;20175;-73
2022/03/09 11:23:14;;;;;;;8.32;6.97;;;14.00;47.30;;;;;;5049771;28;20266;-70
2022/03/09 11:25:51;;;;;;;8.50;6.63;;;14.00;47.60;;;;;;5053738;28;20184;-72
2022/03/09 11:28:38;;;;;;;6.95;5.95;;;14.30;49.00;;;;;;5048381;28;20211;-70
2022/03/09 11:31:07;;;;;;;5.25;4.72;;;14.50;45.60;;;;;;5051252;28;20183;-71
2022/03/09 11:33:41;;;;;;;8.68;7.00;;;14.50;45.50;;;;;;5045741;28;20382;-70
2022/03/09 11:36:30;;;;;;;8.63;6.38;;;14.40;47.30;;;;;;5050554;28;20269;-71
2022/03/09 11:39:22;;;;;;;6.75;5.72;;;14.50;47.40;;;;;;5040032;28;21504;-71
2022/03/09 11:41:47;;;;;;;5.95;5.35;;;13.90;45.20;;;;;;5038832;28;20349;-70
2022/03/09 11:44:19;;;;;;;13.55;6.47;;;12.70;46.00;;;;;;5039178;28;20298;-72
2022/03/09 11:46:57;;;;;;;9.77;5.90;;;11.80;47.00;;;;;;5040499;28;20978;-71
2022/03/09 11:49:23;;;;;;;7.00;6.30;;;11.10;47.90;;;;;;5041112;28;20223;-72
2022/03/09 11:52:15;;;;;;;5.75;4.47;;;10.60;49.20;;;;;;5038891;28;20202;-71
2022/03/09 11:54:46;;;;;;;5.15;4.72;;;9.80;47.80;;;;;;5038009;28;20266;-71
2022/03/09 11:57:15;;;;;;;7.55;4.68;;;8.90;49.10;;;;;;5040773;28;20665;-71
2022/03/09 12:00:14;;;;;;;6.60;5.20;;;8.40;51.00;;;;;;5039808;28;20677;-71
2022/03/09 12:02:56;;;;;;;6.10;5.50;;;8.00;53.20;;;;;;5038663;28;20199;-72
2022/03/09 12:05:25;;;;;;;8.60;5.47;;;7.60;53.60;;;;;;5018249;28;20593;-71
2022/03/09 12:08:03;;;;;;;4.83;4.30;;;7.30;55.40;;;;;;5038231;28;20262;-71
2022/03/09 12:10:49;;;;;;;5.87;5.07;;;7.10;54.20;;;;;;5038920;28;20944;-72
2022/03/09 12:13:22;;;;;;;6.20;4.37;;;6.70;55.00;;;;;;5036653;28;20243;-73
2022/03/09 12:16:29;;;;;;;5.60;4.80;;;6.40;56.40;;;;;;5041929;28;20195;-71
2022/03/09 12:19:00;;;;;;;6.97;5.10;;;6.20;56.70;;;;;;5001396;28;20275;-71
2022/03/09 12:21:26;;;;;;;4.60;4.20;;;5.80;56.20;;;;;;4995116;28;20192;-70
2022/03/09 12:24:08;;;;;;;7.43;4.43;;;5.60;56.70;;;;;;4984120;28;20192;-70
2022/03/09 12:26:45;;;;;;;5.47;4.13;;;5.50;57.50;;;;;;4998661;28;20218;-70
2022/03/09 12:29:23;;;;;;;5.00;4.20;;;5.30;57.50;;;;;;4999757;28;20249;-70
2022/03/09 12:32:02;;;;;;;8.60;4.13;;;5.20;58.00;;;;;;5000941;28;20197;-70
2022/03/09 12:34:30;;;;;;;8.83;5.17;;;5.10;59.10;;;;;;5001461;28;20192;-70
2022/03/09 12:36:57;;;;;;;4.23;3.53;;;5.10;59.50;;;;;;5001243;28;20285;-70
2022/03/09 12:39:23;;;;;;;10.87;4.93;;;5.10;60.00;;;;;;4999516;28;20616;-70
2022/03/09 12:41:53;;;;;;;6.77;5.13;;;5.10;60.10;;;;;;5001682;28;20201;-70
2022/03/09 12:44:24;;;;;;;9.27;5.27;;;4.90;60.70;;;;;;5000509;28;20189;-70
2022/03/09 12:46:52;;;;;;;7.30;4.73;;;4.70;61.40;;;;;;5000957;28;20189;-70